Time;durP1;ratioP1;P1;durP2;ratioP2;P2;SDS_P1;SDS_P2;PMS_P1;PMS_P2;Temp;Humidity;BMP_temperature;BMP_pressure;BME280_temperature;BME280_humidity;BME280_pressure;Samples;Min_cycle;Max_cycle;Signal;HPM_P1;HPM_P2
2023/08/27 00:01:55;;;;;;;2.37;2.27;;;14.20;99.90;;;;;;491619;241;28840;-75
2023/08/27 00:03:56;;;;;;;2.73;2.47;;;14.10;99.90;;;;;;491609;241;28798;-75
2023/08/27 00:05:58;;;;;;;4.10;2.50;;;14.10;99.90;;;;;;491628;241;28810;-74
2023/08/27 00:07:59;;;;;;;5.80;3.40;;;14.10;99.90;;;;;;491647;242;28903;-73
2023/08/27 00:10:01;;;;;;;4.40;4.00;;;14.10;99.90;;;;;;491519;241;28373;-75
2023/08/27 00:12:02;;;;;;;6.40;3.30;;;14.10;99.90;;;;;;491603;241;29230;-76
2023/08/27 00:14:03;;;;;;;2.80;2.60;;;14.20;99.90;;;;;;491585;241;28894;-73
2023/08/27 00:16:04;;;;;;;3.50;2.50;;;14.20;99.90;;;;;;491608;242;28802;-75
2023/08/27 00:18:06;;;;;;;2.87;2.57;;;14.20;99.90;;;;;;491605;242;29367;-73
2023/08/27 00:20:09;;;;;;;3.03;2.60;;;14.20;99.90;;;;;;491633;241;28187;-73
2023/08/27 00:22:09;;;;;;;2.57;2.37;;;14.30;99.90;;;;;;491502;241;28500;-75
2023/08/27 00:24:09;;;;;;;4.00;2.03;;;14.30;99.90;;;;;;491609;241;28461;-75
2023/08/27 00:26:11;;;;;;;2.40;2.20;;;14.30;99.90;;;;;;491628;241;28503;-74
2023/08/27 00:28:16;;;;;;;2.67;2.47;;;14.30;99.90;;;;;;491631;241;28389;-72
2023/08/27 00:30:13;;;;;;;4.77;2.70;;;14.30;99.90;;;;;;491381;242;28629;-72
2023/08/27 00:32:14;;;;;;;2.70;2.50;;;14.20;99.90;;;;;;491623;241;28501;-75
2023/08/27 00:34:16;;;;;;;2.33;2.23;;;14.20;99.90;;;;;;491630;241;28925;-73
2023/08/27 00:36:17;;;;;;;3.70;2.20;;;14.10;99.90;;;;;;491624;241;29257;-73
2023/08/27 00:38:18;;;;;;;4.07;2.40;;;14.10;99.90;;;;;;491597;242;28879;-75
2023/08/27 00:40:19;;;;;;;3.67;2.50;;;14.20;99.90;;;;;;491606;241;28804;-72
2023/08/27 00:42:21;;;;;;;2.87;2.20;;;14.20;99.90;;;;;;491594;241;28799;-75
2023/08/27 00:44:22;;;;;;;2.77;2.30;;;14.20;99.90;;;;;;491601;241;28814;-76
2023/08/27 00:46:23;;;;;;;2.50;2.30;;;14.20;99.90;;;;;;491585;241;28579;-73
2023/08/27 00:48:24;;;;;;;2.93;2.60;;;14.20;99.90;;;;;;491583;241;28911;-73
2023/08/27 00:50:26;;;;;;;4.87;2.37;;;14.10;99.90;;;;;;491593;241;28520;-75
2023/08/27 00:52:27;;;;;;;3.63;2.60;;;14.10;99.90;;;;;;491592;242;28579;-73
2023/08/27 00:54:28;;;;;;;3.00;2.20;;;14.10;99.90;;;;;;491597;241;28492;-72
2023/08/27 00:56:29;;;;;;;2.87;2.57;;;14.10;99.90;;;;;;491589;241;28583;-73
2023/08/27 00:58:31;;;;;;;5.23;3.07;;;14.10;99.90;;;;;;491593;242;29247;-73
2023/08/27 01:00:32;;;;;;;2.50;2.30;;;14.20;99.90;;;;;;491585;241;28959;-73
2023/08/27 01:48:55;;;;;;;2.93;2.63;;;14.30;99.90;;;;;;483116;246;28653;-73
2023/08/27 01:50:56;;;;;;;2.33;2.10;;;14.40;99.90;;;;;;483186;245;29381;-73
2023/08/27 01:52:57;;;;;;;2.83;2.60;;;14.40;99.90;;;;;;483121;246;28863;-74
2023/08/27 01:54:59;;;;;;;2.63;2.43;;;14.40;99.90;;;;;;483162;246;28848;-73
2023/08/27 01:57:00;;;;;;;2.73;2.20;;;14.30;99.90;;;;;;483114;246;28869;-74
2023/08/27 01:59:01;;;;;;;3.20;2.50;;;14.30;99.90;;;;;;483125;244;28571;-74
2023/08/27 02:01:02;;;;;;;3.63;2.37;;;14.30;99.90;;;;;;483143;246;28879;-74
2023/08/27 02:03:05;;;;;;;4.20;2.07;;;14.30;99.90;;;;;;483138;246;28934;-74
2023/08/27 02:05:08;;;;;;;4.10;2.43;;;14.20;99.90;;;;;;483116;246;28523;-73
2023/08/27 02:07:06;;;;;;;5.23;2.30;;;14.20;99.90;;;;;;482808;246;28550;-74
2023/08/27 02:09:07;;;;;;;7.50;2.50;;;14.10;99.90;;;;;;483097;246;28575;-74
2023/08/27 02:11:09;;;;;;;3.30;2.40;;;14.20;99.90;;;;;;483229;245;29332;-73
2023/08/27 02:13:10;;;;;;;3.57;2.60;;;14.30;99.90;;;;;;483116;246;29397;-73
2023/08/27 02:15:12;;;;;;;6.70;2.70;;;14.30;99.90;;;;;;483121;246;29293;-73
2023/08/27 02:17:13;;;;;;;2.73;2.53;;;14.30;99.90;;;;;;483120;246;28845;-73
2023/08/27 02:19:15;;;;;;;2.20;2.00;;;14.40;99.90;;;;;;482984;246;28834;-73
2023/08/27 02:21:15;;;;;;;2.80;2.50;;;14.30;99.90;;;;;;483045;246;28615;-73
2023/08/27 02:23:16;;;;;;;4.43;2.50;;;14.40;99.90;;;;;;483143;246;28438;-73
2023/08/27 02:25:17;;;;;;;2.50;2.30;;;14.40;99.90;;;;;;483118;246;28851;-75
2023/08/27 02:27:19;;;;;;;3.47;2.40;;;14.40;99.90;;;;;;483138;246;28854;-75
2023/08/27 02:29:20;;;;;;;3.17;2.20;;;14.30;99.90;;;;;;483140;246;28542;-73
2023/08/27 02:31:21;;;;;;;3.67;2.37;;;14.30;99.90;;;;;;483146;245;28558;-73
2023/08/27 02:33:22;;;;;;;2.37;2.20;;;14.20;99.90;;;;;;483123;246;29420;-73
2023/08/27 02:35:24;;;;;;;3.90;2.30;;;14.30;99.90;;;;;;483140;246;29028;-73
2023/08/27 02:37:25;;;;;;;2.70;2.50;;;14.20;99.90;;;;;;483160;246;28959;-72
2023/08/27 02:39:26;;;;;;;2.93;2.13;;;14.20;99.90;;;;;;483145;246;28841;-73
2023/08/27 02:41:28;;;;;;;2.50;2.30;;;14.20;99.90;;;;;;483135;246;29330;-73
2023/08/27 02:43:29;;;;;;;3.53;2.10;;;14.10;99.90;;;;;;483134;246;28914;-73
2023/08/27 02:45:30;;;;;;;3.80;2.30;;;14.10;99.90;;;;;;483146;245;28976;-74
2023/08/27 02:47:31;;;;;;;2.20;1.97;;;14.10;99.90;;;;;;483119;246;28221;-73
2023/08/27 02:49:33;;;;;;;2.50;2.30;;;14.10;99.90;;;;;;483102;246;28538;-73
2023/08/27 02:51:34;;;;;;;3.67;2.70;;;14.10;99.90;;;;;;483062;246;28857;-73
2023/08/27 02:53:35;;;;;;;3.30;2.23;;;14.20;99.90;;;;;;483086;246;28866;-74
2023/08/27 02:55:36;;;;;;;2.53;2.27;;;14.20;99.90;;;;;;483089;246;29074;-74
2023/08/27 02:57:38;;;;;;;5.43;2.50;;;14.20;99.90;;;;;;483126;246;29014;-73
2023/08/27 02:59:39;;;;;;;5.03;2.43;;;14.20;99.90;;;;;;483095;246;29314;-74
2023/08/27 03:01:40;;;;;;;2.43;2.23;;;14.20;99.90;;;;;;483128;246;29106;-74
2023/08/27 03:03:41;;;;;;;5.07;2.70;;;14.20;99.90;;;;;;483131;246;28842;-74
2023/08/27 03:05:43;;;;;;;1.93;1.83;;;14.20;99.90;;;;;;483123;246;28561;-74
2023/08/27 03:07:44;;;;;;;2.23;2.13;;;14.20;99.90;;;;;;483113;246;28947;-73
2023/08/27 03:09:45;;;;;;;3.70;2.03;;;14.20;99.90;;;;;;483114;246;28865;-73
2023/08/27 03:11:47;;;;;;;2.60;2.30;;;14.20;99.90;;;;;;483104;246;28573;-73
2023/08/27 03:13:49;;;;;;;5.50;2.03;;;14.20;99.90;;;;;;483083;246;29325;-74
2023/08/27 03:15:50;;;;;;;5.67;2.33;;;14.20;99.90;;;;;;483092;246;28891;-73
2023/08/27 03:17:51;;;;;;;2.57;2.00;;;14.20;99.90;;;;;;483093;246;28424;-73
2023/08/27 03:19:52;;;;;;;4.07;2.20;;;14.10;99.90;;;;;;483082;246;28863;-73
2023/08/27 03:21:54;;;;;;;2.60;2.33;;;14.00;99.90;;;;;;483084;246;28545;-74
2023/08/27 03:23:55;;;;;;;2.07;1.97;;;14.00;99.90;;;;;;483104;246;28866;-74
2023/08/27 03:25:56;;;;;;;2.23;2.00;;;14.00;99.90;;;;;;483123;246;28422;-74
2023/08/27 03:27:57;;;;;;;2.40;2.20;;;14.00;99.90;;;;;;483136;246;28403;-72
2023/08/27 03:29:59;;;;;;;3.33;2.50;;;14.00;99.90;;;;;;483140;246;28869;-73
2023/08/27 03:32:00;;;;;;;3.30;2.57;;;14.00;99.90;;;;;;483135;246;28846;-74
2023/08/27 03:34:01;;;;;;;2.93;2.13;;;14.00;99.90;;;;;;483108;246;28861;-73
2023/08/27 03:36:02;;;;;;;3.10;2.47;;;14.00;99.90;;;;;;483104;246;29066;-74
2023/08/27 03:38:04;;;;;;;3.13;1.80;;;14.00;99.90;;;;;;483099;246;29320;-73
2023/08/27 03:40:05;;;;;;;2.27;2.13;;;13.90;99.90;;;;;;483118;246;28993;-73
2023/08/27 03:42:06;;;;;;;2.30;2.10;;;14.00;99.90;;;;;;483137;246;28311;-74
2023/08/27 03:44:07;;;;;;;2.30;2.10;;;14.00;99.90;;;;;;483129;246;28559;-73
2023/08/27 03:46:09;;;;;;;2.80;2.60;;;14.00;99.90;;;;;;483133;246;28553;-73
2023/08/27 03:48:10;;;;;;;2.10;1.90;;;14.00;99.90;;;;;;483147;246;28853;-74
2023/08/27 03:50:11;;;;;;;2.10;2.00;;;14.00;99.90;;;;;;483100;246;28730;-74
2023/08/27 03:52:12;;;;;;;4.77;2.00;;;14.00;99.90;;;;;;483093;246;29010;-73
2023/08/27 03:54:14;;;;;;;2.70;2.07;;;14.00;99.90;;;;;;483157;246;28995;-73
2023/08/27 03:56:15;;;;;;;4.13;2.20;;;14.00;99.90;;;;;;483095;246;28658;-74
2023/08/27 03:58:16;;;;;;;4.30;2.40;;;14.00;99.90;;;;;;483127;246;28571;-72
2023/08/27 04:00:17;;;;;;;3.90;2.07;;;14.00;99.90;;;;;;483147;246;28563;-73
2023/08/27 04:02:19;;;;;;;2.80;1.83;;;14.00;99.90;;;;;;483130;246;28866;-73
2023/08/27 04:04:20;;;;;;;2.20;2.00;;;14.00;99.90;;;;;;483118;246;28554;-75
2023/08/27 04:06:21;;;;;;;3.23;2.00;;;14.00;99.90;;;;;;483125;246;28931;-73
2023/08/27 04:08:22;;;;;;;2.90;2.70;;;14.00;99.90;;;;;;483112;246;28456;-73
2023/08/27 04:10:24;;;;;;;5.07;2.10;;;14.00;99.90;;;;;;483113;246;28553;-74
2023/08/27 04:12:25;;;;;;;3.33;2.03;;;13.90;99.90;;;;;;483126;246;28453;-73
2023/08/27 04:14:26;;;;;;;2.40;1.97;;;13.90;99.90;;;;;;483138;246;28973;-73
2023/08/27 04:16:27;;;;;;;3.20;2.47;;;13.90;99.90;;;;;;483105;246;28911;-74
2023/08/27 04:18:29;;;;;;;2.10;2.00;;;13.80;99.90;;;;;;483101;246;29405;-73
2023/08/27 04:20:30;;;;;;;3.70;2.20;;;13.70;99.90;;;;;;483113;246;28545;-73
2023/08/27 04:22:31;;;;;;;3.20;1.90;;;13.70;99.90;;;;;;483102;246;28667;-75
2023/08/27 04:24:32;;;;;;;2.27;2.07;;;13.70;99.90;;;;;;483113;246;28544;-75
2023/08/27 04:26:34;;;;;;;2.07;1.97;;;13.70;99.90;;;;;;483132;246;28547;-74
2023/08/27 04:28:36;;;;;;;1.87;1.77;;;13.70;99.90;;;;;;483101;246;28424;-73
2023/08/27 04:30:36;;;;;;;3.97;1.93;;;13.60;99.90;;;;;;483048;246;28458;-73
2023/08/27 04:32:37;;;;;;;4.70;2.23;;;13.70;99.90;;;;;;483129;246;28325;-74
2023/08/27 04:34:39;;;;;;;2.40;2.20;;;13.70;99.90;;;;;;483131;246;28638;-73
2023/08/27 04:36:41;;;;;;;2.10;2.00;;;13.70;99.90;;;;;;483115;246;28868;-74
2023/08/27 04:38:42;;;;;;;3.47;2.20;;;13.60;99.90;;;;;;483149;246;28470;-73
2023/08/27 04:40:43;;;;;;;2.53;2.33;;;13.70;99.90;;;;;;483127;246;28985;-74
2023/08/27 04:42:45;;;;;;;4.60;2.20;;;13.60;99.90;;;;;;483131;246;28876;-74
2023/08/27 04:44:46;;;;;;;4.70;2.67;;;13.60;99.90;;;;;;483086;246;28996;-72
2023/08/27 04:46:47;;;;;;;2.10;2.00;;;13.60;99.90;;;;;;483146;246;29011;-73
2023/08/27 04:48:48;;;;;;;2.40;2.20;;;13.60;99.90;;;;;;483143;246;28546;-73
2023/08/27 04:50:50;;;;;;;2.63;1.93;;;13.60;99.90;;;;;;483134;246;28315;-73
2023/08/27 04:52:51;;;;;;;4.17;2.60;;;13.70;99.90;;;;;;483135;246;28485;-74
2023/08/27 04:54:52;;;;;;;2.30;2.20;;;13.60;99.90;;;;;;483140;246;28972;-75
2023/08/27 04:56:53;;;;;;;2.33;2.07;;;13.70;99.90;;;;;;483139;246;28439;-74
2023/08/27 04:58:55;;;;;;;2.70;2.33;;;13.80;99.90;;;;;;483158;246;28556;-73
2023/08/27 05:00:56;;;;;;;1.90;1.80;;;13.80;99.90;;;;;;483113;246;28213;-73
2023/08/27 05:02:57;;;;;;;3.77;2.20;;;13.80;99.90;;;;;;483136;246;28222;-74
2023/08/27 05:04:58;;;;;;;2.73;2.10;;;13.80;99.90;;;;;;483141;246;28398;-73
2023/08/27 05:07:00;;;;;;;2.53;1.87;;;13.90;99.90;;;;;;483131;246;29003;-73
2023/08/27 05:09:01;;;;;;;2.53;2.33;;;13.90;99.90;;;;;;483160;246;28859;-74
2023/08/27 05:11:02;;;;;;;4.20;1.97;;;14.00;99.90;;;;;;483106;246;29001;-72
2023/08/27 05:13:03;;;;;;;2.20;2.00;;;14.00;99.90;;;;;;483106;246;28436;-76
2023/08/27 05:15:06;;;;;;;6.07;2.20;;;14.00;99.90;;;;;;483093;246;28791;-73
2023/08/27 05:17:07;;;;;;;5.37;2.20;;;13.90;99.90;;;;;;483097;246;28496;-72
2023/08/27 05:19:09;;;;;;;2.20;2.07;;;13.80;99.90;;;;;;483094;246;28409;-74
2023/08/27 05:21:09;;;;;;;2.50;1.90;;;13.90;99.90;;;;;;483107;246;28765;-74
2023/08/27 05:23:11;;;;;;;2.17;2.00;;;14.00;99.90;;;;;;483096;246;28998;-74
2023/08/27 05:25:12;;;;;;;3.03;2.20;;;14.00;99.90;;;;;;483104;246;29001;-73
2023/08/27 05:27:13;;;;;;;2.10;1.87;;;14.10;99.90;;;;;;483099;246;28919;-75
2023/08/27 05:29:14;;;;;;;2.30;1.97;;;14.10;99.90;;;;;;482998;246;28621;-74
2023/08/27 05:31:16;;;;;;;1.70;1.60;;;14.10;99.90;;;;;;483091;246;28428;-75
2023/08/27 05:33:17;;;;;;;3.50;1.77;;;14.20;99.90;;;;;;483089;246;28551;-75
2023/08/27 05:35:18;;;;;;;1.97;1.63;;;14.30;99.90;;;;;;483089;246;28926;-75
2023/08/27 05:37:19;;;;;;;2.90;2.30;;;14.40;99.90;;;;;;483096;246;28537;-75
2023/08/27 05:39:21;;;;;;;3.00;1.80;;;14.40;99.90;;;;;;483106;246;28842;-75
2023/08/27 05:41:22;;;;;;;2.33;2.13;;;14.50;99.90;;;;;;483098;246;28630;-75
2023/08/27 05:43:24;;;;;;;1.97;1.87;;;14.60;99.90;;;;;;483094;246;29320;-75
2023/08/27 05:45:24;;;;;;;3.30;2.33;;;14.70;99.90;;;;;;482994;246;29305;-72
2023/08/27 05:47:29;;;;;;;2.30;2.10;;;14.70;99.90;;;;;;483078;246;29306;-74
2023/08/27 05:49:27;;;;;;;2.27;2.17;;;14.80;99.90;;;;;;482940;246;29306;-75
2023/08/27 05:51:28;;;;;;;3.23;1.93;;;14.90;99.90;;;;;;483104;246;28944;-76
2023/08/27 05:53:30;;;;;;;4.83;2.50;;;14.90;99.90;;;;;;483096;246;28930;-74
2023/08/27 05:55:32;;;;;;;3.47;2.10;;;14.90;99.90;;;;;;483114;246;28874;-74
2023/08/27 05:57:33;;;;;;;1.97;1.87;;;14.90;99.90;;;;;;483087;246;28941;-75
2023/08/27 05:59:34;;;;;;;12.17;3.33;;;14.90;99.90;;;;;;483095;246;29229;-74
2023/08/27 06:01:35;;;;;;;2.30;2.13;;;15.00;99.90;;;;;;483079;246;29365;-75
2023/08/27 06:03:37;;;;;;;6.10;2.47;;;15.00;99.90;;;;;;483086;246;29298;-75
2023/08/27 06:05:38;;;;;;;3.30;2.50;;;15.00;99.90;;;;;;483117;246;29360;-75
2023/08/27 06:07:39;;;;;;;6.13;2.10;;;15.10;99.90;;;;;;483126;246;29382;-76
2023/08/27 06:09:40;;;;;;;2.20;2.00;;;15.10;99.90;;;;;;483109;246;28843;-73
2023/08/27 06:11:42;;;;;;;4.40;2.10;;;15.20;99.90;;;;;;483112;246;28931;-76
2023/08/27 06:13:43;;;;;;;2.43;2.20;;;15.30;99.90;;;;;;483096;246;28862;-73
2023/08/27 06:15:44;;;;;;;2.30;2.10;;;15.30;99.90;;;;;;483116;246;28844;-73
2023/08/27 06:17:45;;;;;;;2.43;2.23;;;15.40;99.90;;;;;;483095;246;28829;-75
2023/08/27 06:19:47;;;;;;;2.20;2.00;;;15.50;99.90;;;;;;483073;246;28924;-75
2023/08/27 06:21:48;;;;;;;3.10;2.27;;;15.60;99.90;;;;;;483103;246;28931;-75
2023/08/27 06:23:49;;;;;;;2.90;2.10;;;15.70;99.90;;;;;;483071;246;28853;-75
2023/08/27 06:25:50;;;;;;;2.10;2.00;;;15.70;99.90;;;;;;483082;246;29340;-75
2023/08/27 06:27:52;;;;;;;4.00;2.40;;;15.60;99.90;;;;;;483143;246;29346;-74
2023/08/27 06:29:53;;;;;;;2.87;2.60;;;15.60;99.90;;;;;;483103;246;29278;-74
2023/08/27 06:31:54;;;;;;;3.40;2.70;;;15.60;99.90;;;;;;483097;246;29415;-75
2023/08/27 06:33:55;;;;;;;2.30;2.10;;;15.60;99.90;;;;;;483089;246;28872;-75
2023/08/27 06:35:57;;;;;;;2.87;2.17;;;15.60;99.90;;;;;;483085;246;28837;-75
2023/08/27 06:37:58;;;;;;;3.40;2.50;;;15.60;99.90;;;;;;483097;246;28846;-75
2023/08/27 06:39:59;;;;;;;4.07;2.87;;;15.70;99.90;;;;;;483092;246;28924;-80
2023/08/27 06:42:00;;;;;;;2.40;2.00;;;15.70;99.90;;;;;;483096;246;28840;-74
2023/08/27 06:44:02;;;;;;;2.60;2.20;;;15.70;99.90;;;;;;483097;246;28916;-75
2023/08/27 06:46:03;;;;;;;4.30;2.70;;;15.70;99.90;;;;;;483091;244;28850;-75
2023/08/27 06:48:04;;;;;;;2.70;2.40;;;15.70;99.90;;;;;;483085;246;28831;-73
2023/08/27 06:50:06;;;;;;;6.90;2.87;;;15.70;99.90;;;;;;483101;246;29385;-75
2023/08/27 06:52:07;;;;;;;3.47;2.80;;;15.80;99.90;;;;;;483151;246;29390;-76
2023/08/27 06:54:08;;;;;;;3.20;2.33;;;15.80;99.90;;;;;;483095;246;29313;-75
2023/08/27 06:56:09;;;;;;;2.93;2.63;;;15.80;99.90;;;;;;483078;246;29321;-75
2023/08/27 06:58:10;;;;;;;6.07;2.93;;;15.90;99.90;;;;;;483114;246;28856;-75
2023/08/27 07:00:12;;;;;;;3.47;2.67;;;16.00;99.90;;;;;;483121;246;28834;-75
2023/08/27 07:02:14;;;;;;;3.73;2.77;;;16.00;99.90;;;;;;483123;246;28941;-75
2023/08/27 07:04:14;;;;;;;2.70;2.50;;;16.20;99.90;;;;;;483090;246;28855;-75
2023/08/27 07:06:15;;;;;;;8.97;2.57;;;16.30;99.90;;;;;;483117;246;28846;-75
2023/08/27 07:08:19;;;;;;;4.07;2.70;;;16.50;99.90;;;;;;483121;246;28857;-74
2023/08/27 07:10:18;;;;;;;4.57;2.80;;;16.60;99.90;;;;;;482997;246;28839;-74
2023/08/27 07:12:19;;;;;;;3.20;2.70;;;16.70;99.90;;;;;;483121;246;28862;-75
2023/08/27 07:14:20;;;;;;;6.23;2.90;;;16.80;99.90;;;;;;483105;246;29382;-75
2023/08/27 07:16:22;;;;;;;3.83;2.60;;;16.90;99.90;;;;;;483112;246;29327;-74
2023/08/27 07:18:23;;;;;;;2.60;2.40;;;17.00;99.90;;;;;;483120;246;29315;-75
2023/08/27 07:20:24;;;;;;;4.50;3.03;;;17.10;99.90;;;;;;483178;246;29290;-75
2023/08/27 07:22:25;;;;;;;7.23;2.93;;;17.10;99.90;;;;;;483106;246;28902;-72
2023/08/27 07:24:28;;;;;;;6.53;3.23;;;17.10;99.90;;;;;;483126;246;28851;-72
2023/08/27 07:26:29;;;;;;;5.77;2.90;;;17.20;99.90;;;;;;483034;246;28918;-71
2023/08/27 07:28:29;;;;;;;6.13;2.90;;;17.10;99.90;;;;;;483061;246;28868;-75
2023/08/27 07:30:31;;;;;;;4.63;3.00;;;17.20;99.90;;;;;;483113;246;29195;-75
2023/08/27 07:32:32;;;;;;;5.70;4.17;;;17.30;99.90;;;;;;483097;246;28914;-75
2023/08/27 07:34:33;;;;;;;3.63;2.57;;;17.40;99.90;;;;;;483109;246;28931;-75
2023/08/27 07:36:34;;;;;;;4.43;2.87;;;17.40;99.90;;;;;;483110;246;28834;-75
2023/08/27 07:38:35;;;;;;;3.70;3.37;;;17.40;99.90;;;;;;483107;246;28946;-76
2023/08/27 07:40:37;;;;;;;5.77;3.80;;;17.40;99.90;;;;;;483120;246;29307;-74
2023/08/27 07:42:38;;;;;;;5.23;3.10;;;17.40;99.90;;;;;;483117;246;29303;-75
2023/08/27 07:44:39;;;;;;;4.00;2.90;;;17.40;99.90;;;;;;483118;246;28847;-73
2023/08/27 07:46:41;;;;;;;2.80;2.50;;;17.40;99.90;;;;;;483106;246;28847;-73
2023/08/27 07:48:42;;;;;;;3.37;3.10;;;17.40;99.90;;;;;;483133;246;28871;-75
2023/08/27 07:50:43;;;;;;;3.90;3.00;;;17.20;99.90;;;;;;483113;246;28911;-74
2023/08/27 07:52:44;;;;;;;13.30;3.40;;;17.10;99.90;;;;;;483116;246;28860;-75
2023/08/27 07:54:46;;;;;;;5.37;3.10;;;17.10;99.90;;;;;;483084;246;29335;-75
2023/08/27 07:56:47;;;;;;;4.03;2.87;;;17.00;99.90;;;;;;483112;246;29399;-75
2023/08/27 07:58:48;;;;;;;5.33;2.60;;;16.90;99.90;;;;;;483086;246;29289;-74
2023/08/27 08:00:49;;;;;;;5.03;2.73;;;16.80;99.90;;;;;;483115;246;29326;-75
2023/08/27 08:02:51;;;;;;;2.77;2.53;;;16.80;99.90;;;;;;483107;246;28839;-75
2023/08/27 08:04:52;;;;;;;3.50;2.73;;;16.80;99.90;;;;;;483106;246;28942;-75
2023/08/27 08:06:53;;;;;;;4.03;2.87;;;16.70;99.90;;;;;;483115;246;28888;-75
2023/08/27 08:08:54;;;;;;;3.83;2.73;;;16.80;99.90;;;;;;483119;246;28978;-73
2023/08/27 08:10:56;;;;;;;4.17;3.03;;;16.70;99.90;;;;;;483108;246;28855;-75
2023/08/27 08:12:57;;;;;;;4.73;3.20;;;16.90;99.90;;;;;;483116;246;28945;-75
2023/08/27 08:14:58;;;;;;;6.33;3.37;;;17.10;99.90;;;;;;483107;246;28851;-75
2023/08/27 08:16:59;;;;;;;3.40;3.03;;;17.40;99.90;;;;;;483121;246;28887;-75
2023/08/27 08:19:01;;;;;;;2.80;2.60;;;17.60;99.90;;;;;;483105;246;28850;-75
2023/08/27 08:21:02;;;;;;;3.23;2.93;;;17.90;99.90;;;;;;483108;246;29389;-74
2023/08/27 08:23:03;;;;;;;4.97;3.07;;;18.00;99.90;;;;;;483112;246;29304;-74
2023/08/27 08:25:05;;;;;;;2.93;2.73;;;18.10;99.90;;;;;;483106;246;29408;-73
2023/08/27 08:27:06;;;;;;;6.70;2.93;;;18.30;99.90;;;;;;483094;246;28961;-73
2023/08/27 08:29:07;;;;;;;3.50;2.80;;;18.50;99.90;;;;;;483098;246;28858;-73
2023/08/27 08:31:08;;;;;;;4.53;3.13;;;18.70;99.90;;;;;;483104;246;28854;-74
2023/08/27 08:33:09;;;;;;;4.90;2.80;;;18.80;99.90;;;;;;483083;246;28831;-74
2023/08/27 08:35:11;;;;;;;4.60;3.10;;;18.90;99.90;;;;;;483099;246;28934;-73
2023/08/27 08:37:12;;;;;;;4.23;2.40;;;18.90;99.90;;;;;;483102;246;28925;-75
2023/08/27 08:39:13;;;;;;;5.10;2.50;;;18.90;99.90;;;;;;483094;246;28851;-74
2023/08/27 08:41:14;;;;;;;2.93;2.60;;;19.00;99.90;;;;;;483108;246;28918;-75
2023/08/27 08:43:16;;;;;;;4.97;2.80;;;19.10;99.90;;;;;;483097;246;28867;-74
2023/08/27 08:45:18;;;;;;;2.77;2.50;;;19.20;99.90;;;;;;483095;246;29297;-74
2023/08/27 08:47:19;;;;;;;3.77;2.90;;;19.30;99.90;;;;;;483113;246;28853;-74
2023/08/27 08:49:20;;;;;;;3.90;2.43;;;19.30;99.90;;;;;;483102;246;28863;-74
2023/08/27 08:51:22;;;;;;;5.60;2.70;;;19.30;99.90;;;;;;483099;246;28934;-73
2023/08/27 08:53:23;;;;;;;3.13;2.53;;;19.20;99.90;;;;;;483110;246;28854;-74
2023/08/27 08:55:24;;;;;;;4.00;2.47;;;19.30;99.90;;;;;;483090;246;28854;-75
2023/08/27 08:57:25;;;;;;;3.77;2.70;;;19.30;99.90;;;;;;483085;246;28839;-74
2023/08/27 08:59:28;;;;;;;4.90;2.60;;;19.40;99.90;;;;;;483098;246;28874;-73
2023/08/27 09:01:28;;;;;;;2.50;2.30;;;19.30;99.90;;;;;;483056;246;28852;-75
2023/08/27 09:03:30;;;;;;;4.20;2.23;;;19.30;99.90;;;;;;483084;246;28861;-74
2023/08/27 09:05:30;;;;;;;5.27;2.47;;;19.40;99.90;;;;;;483093;246;29312;-74
2023/08/27 09:07:32;;;;;;;2.67;2.47;;;19.40;99.90;;;;;;483100;246;29283;-75
2023/08/27 09:09:33;;;;;;;8.87;2.77;;;19.50;99.90;;;;;;483097;246;29385;-75
2023/08/27 09:11:34;;;;;;;5.23;2.80;;;19.70;99.90;;;;;;483080;246;28860;-74
2023/08/27 09:13:35;;;;;;;2.87;2.43;;;19.80;99.90;;;;;;483092;246;28855;-75
2023/08/27 09:15:37;;;;;;;5.43;2.90;;;19.80;99.90;;;;;;483077;246;28850;-74
2023/08/27 09:17:38;;;;;;;8.10;2.60;;;19.80;99.90;;;;;;483090;246;28866;-75
2023/08/27 09:19:39;;;;;;;3.07;2.50;;;19.80;99.90;;;;;;483100;246;28948;-75
2023/08/27 09:21:41;;;;;;;4.57;2.60;;;19.90;99.90;;;;;;483076;246;28835;-74
2023/08/27 09:23:42;;;;;;;3.07;2.20;;;20.10;99.90;;;;;;483080;246;28901;-74
2023/08/27 09:25:43;;;;;;;3.10;2.50;;;20.00;99.90;;;;;;483085;246;28861;-73
2023/08/27 09:27:44;;;;;;;4.50;2.70;;;20.00;99.90;;;;;;483094;246;28854;-74
2023/08/27 09:29:45;;;;;;;3.97;2.57;;;20.00;99.90;;;;;;483104;246;29343;-73
2023/08/27 09:31:48;;;;;;;3.53;2.43;;;19.90;99.90;;;;;;483086;246;29421;-75
2023/08/27 09:33:49;;;;;;;2.50;2.30;;;20.00;99.90;;;;;;483093;246;29313;-75
2023/08/27 09:35:50;;;;;;;2.60;2.40;;;19.90;99.90;;;;;;483079;246;29368;-76
2023/08/27 09:37:51;;;;;;;5.60;2.50;;;19.90;99.90;;;;;;483090;246;28910;-75
2023/08/27 09:39:53;;;;;;;2.93;2.57;;;19.90;99.90;;;;;;483099;246;28843;-74
2023/08/27 09:41:56;;;;;;;3.03;2.70;;;19.70;99.90;;;;;;483093;246;29317;-74
2023/08/27 09:43:55;;;;;;;4.87;3.10;;;19.60;99.90;;;;;;482994;246;28913;-75
2023/08/27 09:45:56;;;;;;;3.07;2.33;;;19.20;99.90;;;;;;483085;246;28857;-75
2023/08/27 09:47:58;;;;;;;2.80;2.60;;;19.30;99.90;;;;;;483084;246;28847;-74
2023/08/27 09:49:59;;;;;;;3.67;2.50;;;19.30;99.90;;;;;;483076;246;28829;-75
2023/08/27 09:52:00;;;;;;;4.70;3.03;;;19.40;99.90;;;;;;483080;246;28933;-73
2023/08/27 09:54:01;;;;;;;2.70;2.50;;;19.50;99.90;;;;;;483099;246;29306;-75
2023/08/27 09:56:03;;;;;;;3.53;3.10;;;19.50;99.90;;;;;;483058;246;29325;-74
2023/08/27 09:58:07;;;;;;;4.90;2.60;;;19.50;99.90;;;;;;483088;246;29298;-74
2023/08/27 10:00:08;;;;;;;2.60;2.40;;;19.50;99.90;;;;;;483093;246;29363;-74
2023/08/27 10:02:09;;;;;;;4.90;2.67;;;19.50;99.90;;;;;;483073;246;29389;-75
2023/08/27 10:04:10;;;;;;;7.37;3.33;;;19.50;99.90;;;;;;483088;246;28851;-75
2023/08/27 10:06:12;;;;;;;2.50;2.30;;;19.40;99.90;;;;;;483089;246;28849;-75
2023/08/27 10:08:13;;;;;;;5.07;2.73;;;19.40;99.90;;;;;;483096;246;28849;-74
2023/08/27 10:10:14;;;;;;;3.97;2.50;;;19.50;99.90;;;;;;483087;246;28909;-76
2023/08/27 10:12:15;;;;;;;3.83;2.80;;;19.60;99.90;;;;;;483094;246;28927;-75
2023/08/27 10:14:17;;;;;;;4.20;2.60;;;19.70;99.90;;;;;;483093;246;28855;-74
2023/08/27 10:16:18;;;;;;;4.87;2.63;;;19.60;99.90;;;;;;483086;246;28938;-75
2023/08/27 10:18:19;;;;;;;3.13;2.80;;;19.70;99.90;;;;;;483087;246;28862;-75
2023/08/27 10:20:20;;;;;;;3.70;2.87;;;19.80;99.90;;;;;;483080;246;29282;-74
2023/08/27 10:22:22;;;;;;;5.07;3.00;;;19.90;99.90;;;;;;483080;246;29401;-75
2023/08/27 10:24:23;;;;;;;3.40;2.90;;;19.80;99.90;;;;;;483085;246;29360;-76
2023/08/27 10:26:24;;;;;;;2.43;2.23;;;19.90;99.90;;;;;;483071;246;28914;-75
2023/08/27 10:28:25;;;;;;;3.10;2.50;;;20.10;99.90;;;;;;483091;246;28945;-75
2023/08/27 10:30:27;;;;;;;3.77;2.90;;;20.40;99.90;;;;;;483082;246;29303;-75
2023/08/27 10:32:28;;;;;;;4.10;2.37;;;20.40;99.90;;;;;;483078;246;29300;-75
2023/08/27 10:34:30;;;;;;;3.07;2.87;;;20.40;99.90;;;;;;483052;246;29328;-75
2023/08/27 10:36:31;;;;;;;5.47;2.73;;;20.40;99.90;;;;;;483054;246;28932;-75
2023/08/27 10:38:32;;;;;;;5.70;2.20;;;20.40;99.90;;;;;;483083;246;28843;-75
2023/08/27 10:40:33;;;;;;;3.10;2.50;;;20.60;99.90;;;;;;483068;246;29318;-75
2023/08/27 10:42:36;;;;;;;5.33;2.40;;;20.60;99.90;;;;;;483080;246;28842;-75
2023/08/27 10:44:36;;;;;;;4.10;2.37;;;20.80;99.90;;;;;;483025;246;28863;-74
2023/08/27 10:46:37;;;;;;;3.10;2.80;;;20.50;99.90;;;;;;483083;246;28874;-75
2023/08/27 10:48:38;;;;;;;3.23;2.40;;;20.40;99.90;;;;;;483062;246;28946;-75
2023/08/27 10:50:40;;;;;;;3.80;2.33;;;20.40;99.90;;;;;;483083;246;28932;-75
2023/08/27 10:52:41;;;;;;;4.10;2.40;;;20.40;99.90;;;;;;483070;246;28873;-75
2023/08/27 10:54:42;;;;;;;3.83;2.33;;;20.40;99.90;;;;;;483071;246;29035;-75
2023/08/27 10:56:44;;;;;;;2.90;2.70;;;20.30;99.90;;;;;;483061;246;28854;-74
2023/08/27 10:58:45;;;;;;;3.40;2.20;;;20.30;99.90;;;;;;483090;246;28858;-75
2023/08/27 11:00:46;;;;;;;2.40;2.20;;;20.20;99.90;;;;;;483082;246;28871;-74
2023/08/27 11:02:47;;;;;;;2.67;2.47;;;20.20;99.90;;;;;;483087;246;28880;-74
2023/08/27 11:04:49;;;;;;;5.87;2.33;;;20.20;99.90;;;;;;483078;246;28955;-74
2023/08/27 11:06:50;;;;;;;4.63;2.77;;;20.40;99.90;;;;;;483040;246;28875;-74
2023/08/27 11:08:52;;;;;;;2.97;2.30;;;20.40;99.90;;;;;;483085;246;29338;-74
2023/08/27 11:10:53;;;;;;;3.83;2.33;;;20.30;99.90;;;;;;483055;246;29338;-74
2023/08/27 11:12:54;;;;;;;6.43;2.90;;;20.30;99.90;;;;;;483085;246;28873;-74
2023/08/27 11:14:55;;;;;;;6.23;2.43;;;20.30;99.90;;;;;;483060;246;28878;-76
2023/08/27 11:16:59;;;;;;;2.60;2.40;;;20.40;99.90;;;;;;483091;246;28858;-74
2023/08/27 11:18:58;;;;;;;2.60;2.37;;;20.50;99.90;;;;;;482940;246;28877;-75